Harford, Pennsylvania
Current Conditions -  °F | °C
As of 3:54 PM on Friday 19 Dec 2014 (Local Time) from KAVP Reporting Station
Overcast Overcast  
Wind Chill: 20°   Ceiling: 2500
Heat Index: 30°   Visibility: 10mi
Dew Point: 18°   Wind: 13mph
Humidity: 61%   Direction: 320°NW
Pressure: 30.1"   Gusts: 21mph
Location:  41.78°N, 75.7°W
Report Text: KAVP 192054Z AUTO 32011G18KT 10SM OVC025 M01/M08 A3010 RMK AO2 SLP202 T10111078 51012
Loading
Personal Weather Stations






























Interactive Weather Map New forecast layout! Learn more

10-Day Weather Forecast

Advertisements
Track Severe Weather on mobile